Time;durP1;ratioP1;P1;durP2;ratioP2;P2;SDS_P1;SDS_P2;PMS_P1;PMS_P2;Temp;Humidity;BMP_temperature;BMP_pressure;BME280_temperature;BME280_humidity;BME280_pressure;Samples;Min_cycle;Max_cycle;Signal;HPM_P1;HPM_P2
2022/12/19 00:00:07;;;;;;;18.15;12.07;;;;;;;;;;5091361;28;20291;-85
2022/12/19 00:02:35;;;;;;;17.60;12.20;;;;;;;;;;5097984;28;20224;-85
2022/12/19 00:05:02;;;;;;;20.80;13.02;;;;;;;;;;5096543;28;20227;-85
2022/12/19 00:07:31;;;;;;;18.95;12.63;;;;;;;;;;5098631;28;20245;-85
2022/12/19 00:09:59;;;;;;;16.55;12.48;;;;;;;;;;5090725;28;20283;-85
2022/12/19 00:12:26;;;;;;;16.13;11.30;;;;;;;;;;5097395;28;20299;-85
2022/12/19 00:14:54;;;;;;;20.27;12.32;;;;;;;;;;5097492;28;20844;-85
2022/12/19 00:17:21;;;;;;;18.90;12.35;;;;;;;;;;5098525;28;20632;-86
2022/12/19 00:19:48;;;;;;;19.30;13.27;;;;;;;;;;5096518;28;20287;-85
2022/12/19 00:22:16;;;;;;;20.88;13.75;;;;;;;;;;5106176;28;20656;-85
2022/12/19 00:24:45;;;;;;;18.08;12.27;;;;;;;;;;5102064;28;20291;-84
2022/12/19 00:27:12;;;;;;;20.95;12.82;;;;;;;;;;5098637;28;20299;-85
2022/12/19 00:29:40;;;;;;;22.50;13.45;;;;;;;;;;5100734;28;20227;-85
2022/12/19 00:32:07;;;;;;;20.33;14.65;;;;;;;;;;5098029;28;20275;-84
2022/12/19 00:34:35;;;;;;;23.00;13.57;;;;;;;;;;5099161;28;20283;-85
2022/12/19 00:37:02;;;;;;;21.20;13.23;;;;;;;;;;5098078;28;20708;-84
2022/12/19 00:39:29;;;;;;;20.45;15.20;;;;;;;;;;5095761;28;20317;-85
2022/12/19 00:41:58;;;;;;;21.88;14.30;;;;;;;;;;5094885;28;20204;-85
2022/12/19 00:44:26;;;;;;;19.13;12.13;;;;;;;;;;5098817;28;20244;-84
2022/12/19 00:46:53;;;;;;;20.58;14.20;;;;;;;;;;5101515;28;20635;-85
2022/12/19 00:49:21;;;;;;;20.42;13.93;;;;;;;;;;5098758;28;20692;-83
2022/12/19 00:51:48;;;;;;;25.58;15.63;;;;;;;;;;5099423;28;20264;-84
2022/12/19 00:54:16;;;;;;;24.70;14.35;;;;;;;;;;5098153;28;20276;-85
2022/12/19 00:56:44;;;;;;;26.08;15.77;;;;;;;;;;5101003;28;20196;-85
2022/12/19 00:59:12;;;;;;;24.02;15.65;;;;;;;;;;5097579;28;20231;-83
2022/12/19 01:01:41;;;;;;;18.75;13.60;;;;;;;;;;5098330;28;20284;-84
2022/12/19 01:04:13;;;;;;;24.38;15.52;;;;;;;;;;5099980;28;20216;-84
2022/12/19 01:06:40;;;;;;;25.77;16.23;;;;;;;;;;5099546;28;20661;-84
2022/12/19 01:09:08;;;;;;;22.25;14.07;;;;;;;;;;5096686;28;20263;-83
2022/12/19 01:14:22;;;;;;;20.08;14.48;;;;;;;;;;5092233;28;20312;-84
2022/12/19 01:16:49;;;;;;;22.83;13.20;;;;;;;;;;5098608;28;20637;-85
2022/12/19 01:19:17;;;;;;;21.65;15.20;;;;;;;;;;5103764;28;20235;-83
2022/12/19 01:21:44;;;;;;;20.13;14.27;;;;;;;;;;5098827;28;20283;-85
2022/12/19 01:24:12;;;;;;;22.63;14.95;;;;;;;;;;5094979;28;20255;-85
2022/12/19 01:26:39;;;;;;;21.08;14.90;;;;;;;;;;5098702;28;20267;-84
2022/12/19 01:29:07;;;;;;;24.23;15.32;;;;;;;;;;5097907;28;20284;-85
2022/12/19 01:31:36;;;;;;;21.55;14.85;;;;;;;;;;5098858;28;20692;-84
2022/12/19 01:34:03;;;;;;;22.10;13.30;;;;;;;;;;5084173;28;20227;-85
2022/12/19 01:36:31;;;;;;;20.33;13.02;;;;;;;;;;5100461;28;20215;-83
2022/12/19 01:38:59;;;;;;;22.13;14.82;;;;;;;;;;5097872;28;20274;-83
2022/12/19 01:41:26;;;;;;;22.20;12.07;;;;;;;;;;5101228;28;20275;-84
2022/12/19 01:44:00;;;;;;;22.40;13.68;;;;;;;;;;5096636;28;20665;-84
2022/12/19 01:46:33;;;;;;;18.45;14.20;;;;;;;;;;5098149;28;20319;-85
2022/12/19 01:49:03;;;;;;;21.95;12.77;;;;;;;;;;5095092;28;20197;-85
2022/12/19 01:51:37;;;;;;;18.20;13.52;;;;;;;;;;5096812;28;20203;-83
2022/12/19 01:54:09;;;;;;;16.92;11.93;;;;;;;;;;5098029;28;20266;-86
2022/12/19 01:56:40;;;;;;;19.20;13.77;;;;;;;;;;5099731;28;20667;-83
2022/12/19 01:59:22;;;;;;;20.63;13.75;;;;;;;;;;5098574;28;20295;-84
2022/12/19 02:01:51;;;;;;;21.15;13.15;;;;;;;;;;5098449;28;20207;-85
2022/12/19 02:04:21;;;;;;;19.08;14.18;;;;;;;;;;5093280;28;20216;-85
2022/12/19 02:06:49;;;;;;;19.33;12.70;;;;;;;;;;5098828;28;20224;-85
2022/12/19 02:09:16;;;;;;;21.23;14.63;;;;;;;;;;5093724;28;20287;-84
2022/12/19 02:11:46;;;;;;;18.80;13.63;;;;;;;;;;5098372;28;20294;-83
2022/12/19 02:14:14;;;;;;;18.15;13.63;;;;;;;;;;5099412;28;20220;-84
2022/12/19 02:16:48;;;;;;;19.60;12.77;;;;;;;;;;5094429;28;20201;-83
2022/12/19 02:20:01;;;;;;;24.75;12.93;;;;;;;;;;5101077;28;20268;-85
2022/12/19 02:22:40;;;;;;;23.27;14.75;;;;;;;;;;5095625;28;20244;-85
2022/12/19 02:25:36;;;;;;;22.60;14.68;;;;;;;;;;5098059;28;20623;-83
2022/12/19 02:28:42;;;;;;;21.45;15.98;;;;;;;;;;5098894;28;20212;-84
2022/12/19 02:31:16;;;;;;;21.63;13.50;;;;;;;;;;5078816;28;20210;-85
2022/12/19 02:33:48;;;;;;;20.90;14.45;;;;;;;;;;5111144;28;20300;-85
2022/12/19 02:36:19;;;;;;;15.68;11.70;;;;;;;;;;5104922;28;20200;-84
2022/12/19 02:38:51;;;;;;;21.90;14.50;;;;;;;;;;5099423;28;20199;-82
2022/12/19 02:41:24;;;;;;;23.00;16.55;;;;;;;;;;5095688;28;20395;-83
2022/12/19 02:43:54;;;;;;;21.08;13.60;;;;;;;;;;5097401;28;21876;-84
2022/12/19 02:46:23;;;;;;;23.48;14.15;;;;;;;;;;5098297;28;20229;-84
2022/12/19 02:48:52;;;;;;;22.65;15.57;;;;;;;;;;5097523;28;20239;-84
2022/12/19 02:51:19;;;;;;;23.83;15.35;;;;;;;;;;5099403;28;20227;-84
2022/12/19 02:53:47;;;;;;;27.30;17.88;;;;;;;;;;5097605;28;20232;-84
2022/12/19 02:56:34;;;;;;;22.80;13.50;;;;;;;;;;5094327;28;20631;-84
2022/12/19 02:59:43;;;;;;;25.33;14.75;;;;;;;;;;5089857;28;20198;-84
2022/12/19 03:02:20;;;;;;;23.50;15.25;;;;;;;;;;5058581;28;20196;-84
2022/12/19 03:04:52;;;;;;;22.77;15.30;;;;;;;;;;5098200;28;20287;-83
2022/12/19 03:07:25;;;;;;;22.50;15.60;;;;;;;;;;5078468;28;20704;-83
2022/12/19 03:10:00;;;;;;;21.80;15.55;;;;;;;;;;5095874;28;20198;-84
2022/12/19 03:12:34;;;;;;;21.60;13.02;;;;;;;;;;5093973;28;20652;-84
2022/12/19 03:15:02;;;;;;;20.83;12.75;;;;;;;;;;5098515;28;20203;-84
2022/12/19 03:17:36;;;;;;;19.02;13.60;;;;;;;;;;5101351;28;20199;-84
2022/12/19 03:47:09;;;;;;;23.75;14.70;;;;;;;;;;5078018;28;20206;-86
2022/12/19 03:49:36;;;;;;;21.13;14.80;;;;;;;;;;5080357;28;20239;-86
2022/12/19 03:52:14;;;;;;;24.23;15.93;;;;;;;;;;5082245;28;20288;-86
2022/12/19 03:54:49;;;;;;;23.30;14.85;;;;;;;;;;5083019;28;20283;-86
2022/12/19 03:57:20;;;;;;;26.83;17.08;;;;;;;;;;5081541;28;20612;-86
2022/12/19 03:59:49;;;;;;;24.88;15.68;;;;;;;;;;5081524;28;20304;-85
2022/12/19 04:02:20;;;;;;;27.77;17.13;;;;;;;;;;5082092;28;20292;-85
2022/12/19 04:04:50;;;;;;;20.92;15.30;;;;;;;;;;5082312;28;20213;-84
2022/12/19 04:07:18;;;;;;;25.50;16.42;;;;;;;;;;5082801;28;20693;-86
2022/12/19 04:09:46;;;;;;;22.45;14.00;;;;;;;;;;5082442;28;20282;-86
2022/12/19 04:12:16;;;;;;;24.15;15.50;;;;;;;;;;5082336;28;20675;-86
2022/12/19 04:14:45;;;;;;;22.60;15.55;;;;;;;;;;5082437;28;20216;-85
2022/12/19 04:17:24;;;;;;;20.55;15.00;;;;;;;;;;5081827;28;20573;-85
2022/12/19 04:19:58;;;;;;;23.45;14.85;;;;;;;;;;5082083;28;20315;-85
2022/12/19 04:22:31;;;;;;;21.08;13.52;;;;;;;;;;5081528;28;20206;-86
2022/12/19 04:25:00;;;;;;;22.67;16.25;;;;;;;;;;5073718;28;20201;-86
2022/12/19 04:27:32;;;;;;;23.67;14.88;;;;;;;;;;5080022;28;20201;-86
2022/12/19 04:30:01;;;;;;;19.55;12.23;;;;;;;;;;5078183;28;20285;-85
2022/12/19 04:32:30;;;;;;;22.00;13.02;;;;;;;;;;5078323;28;20292;-85
2022/12/19 04:34:59;;;;;;;18.70;13.13;;;;;;;;;;5079174;28;20308;-84
2022/12/19 04:37:27;;;;;;;17.17;11.82;;;;;;;;;;5078347;28;20768;-85
2022/12/19 04:39:54;;;;;;;17.85;11.43;;;;;;;;;;5076168;28;20571;-85
2022/12/19 04:42:22;;;;;;;20.33;13.88;;;;;;;;;;5073906;28;20255;-85
2022/12/19 04:44:49;;;;;;;21.20;13.00;;;;;;;;;;5078642;28;20231;-84
2022/12/19 04:47:17;;;;;;;16.70;12.20;;;;;;;;;;5078704;28;20644;-84
2022/12/19 04:49:46;;;;;;;16.92;11.68;;;;;;;;;;5078127;28;20231;-84
2022/12/19 04:52:14;;;;;;;18.02;12.82;;;;;;;;;;5078394;28;20203;-85
2022/12/19 04:54:41;;;;;;;14.02;10.50;;;;;;;;;;5078848;28;20293;-84
2022/12/19 04:57:09;;;;;;;22.15;13.38;;;;;;;;;;5076032;28;20239;-84
2022/12/19 04:59:36;;;;;;;22.15;14.43;;;;;;;;;;5078206;28;20264;-85
2022/12/19 05:02:04;;;;;;;17.52;12.27;;;;;;;;;;5078035;28;20225;-85
2022/12/19 05:04:31;;;;;;;18.70;12.15;;;;;;;;;;5076068;28;20632;-85
2022/12/19 05:07:00;;;;;;;20.60;13.57;;;;;;;;;;5079114;28;20255;-84
2022/12/19 05:09:28;;;;;;;19.92;12.73;;;;;;;;;;5078416;28;20308;-85
2022/12/19 05:11:55;;;;;;;19.25;12.13;;;;;;;;;;5074449;28;20283;-85
2022/12/19 05:14:23;;;;;;;19.60;13.05;;;;;;;;;;5071911;28;20260;-86
2022/12/19 05:16:50;;;;;;;23.00;13.70;;;;;;;;;;5077369;28;20292;-87
2022/12/19 05:19:18;;;;;;;19.63;13.40;;;;;;;;;;5076638;28;20259;-86
2022/12/19 05:21:45;;;;;;;16.63;12.07;;;;;;;;;;5075932;28;20201;-86
2022/12/19 05:24:14;;;;;;;19.60;12.45;;;;;;;;;;5065838;28;20331;-85
2022/12/19 05:26:41;;;;;;;18.38;12.77;;;;;;;;;;5075842;28;20638;-85
2022/12/19 05:29:09;;;;;;;18.08;12.52;;;;;;;;;;5056186;28;20228;-85
2022/12/19 05:31:37;;;;;;;18.00;12.23;;;;;;;;;;5065607;28;20233;-85
2022/12/19 05:34:04;;;;;;;16.35;11.68;;;;;;;;;;5066020;28;20288;-83
2022/12/19 05:36:31;;;;;;;16.20;11.18;;;;;;;;;;5076358;28;20235;-84
2022/12/19 05:38:59;;;;;;;20.80;12.90;;;;;;;;;;5077046;28;20621;-85
2022/12/19 05:41:28;;;;;;;15.93;11.38;;;;;;;;;;5077046;28;20816;-85
2022/12/19 05:43:56;;;;;;;16.08;10.82;;;;;;;;;;5063792;28;20228;-85
2022/12/19 05:46:26;;;;;;;14.88;10.73;;;;;;;;;;5076711;28;20296;-84
2022/12/19 05:48:53;;;;;;;16.00;11.73;;;;;;;;;;5076874;28;20228;-86
2022/12/19 05:51:21;;;;;;;15.32;11.10;;;;;;;;;;5078309;28;20243;-86
2022/12/19 05:53:48;;;;;;;14.93;11.45;;;;;;;;;;5057385;28;20297;-84
2022/12/19 05:56:18;;;;;;;16.13;12.20;;;;;;;;;;5057749;28;20705;-85
2022/12/19 05:58:48;;;;;;;16.48;11.43;;;;;;;;;;5065304;28;20644;-86
2022/12/19 06:01:18;;;;;;;15.60;11.70;;;;;;;;;;5074696;28;20252;-85
2022/12/19 06:03:46;;;;;;;13.68;11.10;;;;;;;;;;5072464;28;20194;-86
2022/12/19 06:06:15;;;;;;;17.50;12.27;;;;;;;;;;5063289;28;20603;-84
2022/12/19 06:08:43;;;;;;;13.68;10.35;;;;;;;;;;5057701;28;20281;-84
2022/12/19 06:11:13;;;;;;;12.07;8.80;;;;;;;;;;5076746;28;20284;-85
2022/12/19 06:13:41;;;;;;;20.63;12.50;;;;;;;;;;5059330;28;20229;-85
2022/12/19 06:16:12;;;;;;;13.80;11.32;;;;;;;;;;5077054;28;20197;-86
2022/12/19 06:18:41;;;;;;;16.25;12.13;;;;;;;;;;5073062;28;20189;-85
2022/12/19 06:21:13;;;;;;;15.40;12.50;;;;;;;;;;5058281;28;20229;-84
2022/12/19 06:23:40;;;;;;;19.90;12.52;;;;;;;;;;5076616;28;20201;-86
2022/12/19 06:26:10;;;;;;;15.32;11.90;;;;;;;;;;5076981;28;20243;-85
2022/12/19 06:28:37;;;;;;;17.65;12.85;;;;;;;;;;5077311;28;20213;-85
2022/12/19 06:31:06;;;;;;;16.13;12.13;;;;;;;;;;5077652;28;20256;-86
2022/12/19 06:33:35;;;;;;;16.58;12.07;;;;;;;;;;5071265;28;20689;-86
2022/12/19 06:36:06;;;;;;;15.20;11.48;;;;;;;;;;5076805;28;20200;-85
2022/12/19 06:38:34;;;;;;;15.65;11.77;;;;;;;;;;5077718;28;20296;-86
2022/12/19 06:43:49;;;;;;;16.77;11.70;;;;;;;;;;5065133;28;20256;-82
2022/12/19 06:46:16;;;;;;;20.50;13.05;;;;;;;;;;5073926;28;20200;-83
2022/12/19 06:48:45;;;;;;;20.65;13.32;;;;;;;;;;5071128;28;20862;-84
2022/12/19 06:51:13;;;;;;;16.27;12.45;;;;;;;;;;5073917;28;20243;-82
2022/12/19 06:53:40;;;;;;;17.88;13.13;;;;;;;;;;5074675;28;20657;-83
2022/12/19 06:56:08;;;;;;;20.98;13.52;;;;;;;;;;5075416;28;20209;-84
2022/12/19 06:58:36;;;;;;;20.10;13.88;;;;;;;;;;5073551;28;20200;-84
2022/12/19 07:01:03;;;;;;;17.23;12.32;;;;;;;;;;5063164;28;20300;-83
2022/12/19 07:03:36;;;;;;;14.27;11.30;;;;;;;;;;5072043;28;20193;-83
2022/12/19 07:06:06;;;;;;;16.77;11.25;;;;;;;;;;5074930;28;20609;-84
2022/12/19 07:08:34;;;;;;;19.23;12.73;;;;;;;;;;5075248;28;20224;-83
2022/12/19 07:11:01;;;;;;;18.58;13.57;;;;;;;;;;5066859;28;20249;-83
2022/12/19 07:13:29;;;;;;;14.85;11.57;;;;;;;;;;5068004;28;20237;-83
2022/12/19 07:15:58;;;;;;;23.33;13.52;;;;;;;;;;5062871;28;20265;-83
2022/12/19 07:18:25;;;;;;;17.17;13.55;;;;;;;;;;5068150;28;20194;-82
2022/12/19 07:20:53;;;;;;;15.20;10.30;;;;;;;;;;5076090;28;20259;-84
2022/12/19 07:23:23;;;;;;;18.63;13.02;;;;;;;;;;5074120;28;20237;-84
2022/12/19 07:25:51;;;;;;;16.25;12.82;;;;;;;;;;5074601;28;20644;-84
2022/12/19 07:28:19;;;;;;;15.75;12.68;;;;;;;;;;5074246;28;20281;-84
2022/12/19 07:30:46;;;;;;;20.17;14.30;;;;;;;;;;5074690;28;20315;-84
2022/12/19 07:33:14;;;;;;;19.42;14.38;;;;;;;;;;5068458;28;20216;-85
2022/12/19 07:35:41;;;;;;;16.05;13.07;;;;;;;;;;5072824;28;20204;-84
2022/12/19 07:38:09;;;;;;;15.18;12.05;;;;;;;;;;5062005;28;20285;-84
2022/12/19 07:40:38;;;;;;;15.90;12.35;;;;;;;;;;5074544;28;20252;-84
2022/12/19 07:43:06;;;;;;;15.68;12.10;;;;;;;;;;5074268;28;20232;-84
2022/12/19 07:45:36;;;;;;;16.92;11.50;;;;;;;;;;5066986;28;20757;-83
2022/12/19 07:48:05;;;;;;;15.43;11.30;;;;;;;;;;5055507;28;20729;-84
2022/12/19 07:50:33;;;;;;;16.23;11.52;;;;;;;;;;5066967;28;20303;-84
2022/12/19 07:53:01;;;;;;;16.30;12.45;;;;;;;;;;5075257;28;20223;-84
2022/12/19 07:55:29;;;;;;;14.68;11.05;;;;;;;;;;5075216;28;20236;-84
2022/12/19 07:57:58;;;;;;;16.30;11.85;;;;;;;;;;5073411;28;20308;-84
2022/12/19 08:00:26;;;;;;;15.43;11.57;;;;;;;;;;5068261;28;20308;-84
2022/12/19 08:02:53;;;;;;;15.82;11.60;;;;;;;;;;5073534;28;20276;-84
2022/12/19 08:05:21;;;;;;;19.58;13.25;;;;;;;;;;5076245;28;20224;-83
2022/12/19 08:07:48;;;;;;;14.98;10.98;;;;;;;;;;5059873;28;20208;-83
2022/12/19 08:10:16;;;;;;;15.88;11.38;;;;;;;;;;5076493;28;20250;-83
2022/12/19 08:12:44;;;;;;;13.95;11.63;;;;;;;;;;5076736;28;20205;-84
2022/12/19 08:15:13;;;;;;;16.17;12.80;;;;;;;;;;5073997;28;20197;-83
2022/12/19 08:17:40;;;;;;;13.63;9.52;;;;;;;;;;5076615;28;20197;-83
2022/12/19 08:20:11;;;;;;;15.88;10.93;;;;;;;;;;5069103;28;20299;-85
2022/12/19 08:22:38;;;;;;;15.45;12.85;;;;;;;;;;5075432;28;20587;-85
2022/12/19 08:25:08;;;;;;;14.85;12.65;;;;;;;;;;5070779;28;20204;-85
2022/12/19 08:27:36;;;;;;;17.73;12.82;;;;;;;;;;5070577;28;20205;-86
2022/12/19 08:30:04;;;;;;;16.73;12.25;;;;;;;;;;5076263;28;20768;-85
2022/12/19 08:32:33;;;;;;;15.23;11.55;;;;;;;;;;5075532;28;20203;-84
2022/12/19 08:35:00;;;;;;;15.57;12.27;;;;;;;;;;5076256;28;20644;-84
2022/12/19 08:37:28;;;;;;;15.38;11.57;;;;;;;;;;5071679;28;20236;-83
2022/12/19 08:39:55;;;;;;;18.40;13.18;;;;;;;;;;5070227;28;20304;-84
2022/12/19 08:42:22;;;;;;;15.55;11.13;;;;;;;;;;5076273;28;20236;-84
2022/12/19 08:44:50;;;;;;;14.48;11.40;;;;;;;;;;5073905;28;20281;-84
2022/12/19 08:47:18;;;;;;;20.05;13.65;;;;;;;;;;5064114;28;20236;-84
2022/12/19 08:49:46;;;;;;;16.90;11.95;;;;;;;;;;5073739;28;20256;-84
2022/12/19 08:52:14;;;;;;;19.50;13.80;;;;;;;;;;5072404;28;20248;-85
2022/12/19 08:54:41;;;;;;;17.85;12.50;;;;;;;;;;5075811;28;20201;-85
2022/12/19 08:57:09;;;;;;;16.55;12.32;;;;;;;;;;5072988;28;20236;-85
2022/12/19 08:59:36;;;;;;;15.68;11.82;;;;;;;;;;5066520;28;20275;-83
2022/12/19 09:02:04;;;;;;;16.95;11.18;;;;;;;;;;5075317;28;20247;-84
2022/12/19 09:04:32;;;;;;;16.77;12.02;;;;;;;;;;5073885;28;20637;-83
2022/12/19 09:07:01;;;;;;;18.23;14.52;;;;;;;;;;5074923;28;20970;-83
2022/12/19 09:09:28;;;;;;;17.83;12.93;;;;;;;;;;5075497;28;20334;-86
2022/12/19 09:11:56;;;;;;;13.82;11.38;;;;;;;;;;5073934;28;20307;-84
2022/12/19 09:14:23;;;;;;;22.17;12.13;;;;;;;;;;5075373;28;20220;-84
2022/12/19 09:16:51;;;;;;;15.85;12.63;;;;;;;;;;5075774;28;20285;-86
2022/12/19 09:19:18;;;;;;;18.35;12.00;;;;;;;;;;5073999;28;20287;-85
2022/12/19 09:21:46;;;;;;;14.68;10.30;;;;;;;;;;5074913;28;20224;-85
2022/12/19 09:24:15;;;;;;;16.58;11.60;;;;;;;;;;5070357;28;20252;-86
2022/12/19 09:26:43;;;;;;;18.20;11.70;;;;;;;;;;5076218;28;20316;-83
2022/12/19 09:29:11;;;;;;;17.83;13.25;;;;;;;;;;5074281;28;20292;-86
2022/12/19 09:31:38;;;;;;;14.75;11.40;;;;;;;;;;5074909;28;20312;-84
2022/12/19 09:34:06;;;;;;;17.20;12.45;;;;;;;;;;5068002;28;20229;-84
2022/12/19 09:36:33;;;;;;;15.52;11.10;;;;;;;;;;5074489;28;20280;-86
2022/12/19 09:39:01;;;;;;;18.50;13.00;;;;;;;;;;5076920;28;20322;-86
2022/12/19 09:41:50;;;;;;;13.80;11.48;;;;;;;;;;5065416;28;20228;-85
2022/12/19 09:44:32;;;;;;;12.10;10.68;;;;;;;;;;5069867;28;20288;-85
2022/12/19 09:47:01;;;;;;;14.02;11.13;;;;;;;;;;5069723;28;20209;-86
2022/12/19 09:49:38;;;;;;;15.65;11.65;;;;;;;;;;5072354;28;20232;-85
2022/12/19 09:52:11;;;;;;;17.52;12.60;;;;;;;;;;5075131;28;20220;-84
2022/12/19 09:54:41;;;;;;;15.48;11.65;;;;;;;;;;5072322;28;20193;-85
2022/12/19 09:57:18;;;;;;;15.32;10.18;;;;;;;;;;5074206;28;20296;-87
2022/12/19 09:59:49;;;;;;;17.05;11.15;;;;;;;;;;5070740;28;20284;-86
2022/12/19 10:02:36;;;;;;;16.92;12.73;;;;;;;;;;5075034;28;20289;-84
2022/12/19 10:05:09;;;;;;;17.70;12.38;;;;;;;;;;5067306;28;20283;-85
2022/12/19 10:07:36;;;;;;;14.13;10.75;;;;;;;;;;5075711;28;20602;-86
2022/12/19 10:10:05;;;;;;;13.50;10.77;;;;;;;;;;5069095;28;20323;-87
2022/12/19 10:12:52;;;;;;;19.67;13.35;;;;;;;;;;5069488;28;20642;-86
2022/12/19 10:15:26;;;;;;;17.15;11.60;;;;;;;;;;5075528;28;20189;-84
2022/12/19 10:18:24;;;;;;;21.40;11.85;;;;;;;;;;5075143;28;20201;-87
2022/12/19 10:20:59;;;;;;;16.55;11.63;;;;;;;;;;5071119;28;20217;-87
2022/12/19 10:23:52;;;;;;;14.40;11.23;;;;;;;;;;5074201;28;20196;-86
2022/12/19 10:26:21;;;;;;;15.38;10.10;;;;;;;;;;5074549;28;20694;-86
2022/12/19 10:29:06;;;;;;;16.48;11.75;;;;;;;;;;5073204;28;20292;-84
2022/12/19 10:31:36;;;;;;;14.75;9.75;;;;;;;;;;5077645;28;20213;-87
2022/12/19 10:34:13;;;;;;;15.70;12.45;;;;;;;;;;5074556;28;20284;-85
2022/12/19 10:36:45;;;;;;;13.70;10.77;;;;;;;;;;5087496;28;20291;-85
2022/12/19 10:39:20;;;;;;;14.40;10.60;;;;;;;;;;5078631;28;20216;-85
2022/12/19 10:41:50;;;;;;;15.63;10.70;;;;;;;;;;5078696;28;20229;-86
2022/12/19 10:44:20;;;;;;;15.82;13.32;;;;;;;;;;5079517;28;20240;-85
2022/12/19 10:46:49;;;;;;;14.60;10.63;;;;;;;;;;5079877;28;20227;-85
2022/12/19 10:49:18;;;;;;;13.65;9.85;;;;;;;;;;5075322;28;20193;-85
2022/12/19 10:51:57;;;;;;;16.10;10.95;;;;;;;;;;5080004;28;20217;-87
2022/12/19 10:54:25;;;;;;;13.18;10.63;;;;;;;;;;5079833;28;20223;-87
2022/12/19 10:56:53;;;;;;;14.77;10.48;;;;;;;;;;5078279;28;20304;-85
2022/12/19 10:59:23;;;;;;;14.60;10.40;;;;;;;;;;5068587;28;20225;-86
2022/12/19 11:01:51;;;;;;;12.93;11.18;;;;;;;;;;5064448;28;20248;-86
2022/12/19 11:04:29;;;;;;;12.20;9.77;;;;;;;;;;5079691;28;20226;-86
2022/12/19 11:07:19;;;;;;;14.55;10.63;;;;;;;;;;5076621;28;20283;-86
2022/12/19 11:09:48;;;;;;;15.05;10.60;;;;;;;;;;5076836;28;20217;-87
2022/12/19 11:12:18;;;;;;;15.60;11.40;;;;;;;;;;5072861;28;20674;-86
2022/12/19 11:14:52;;;;;;;17.63;12.32;;;;;;;;;;5067753;28;20241;-86
2022/12/19 11:17:28;;;;;;;15.73;12.15;;;;;;;;;;5074485;28;20756;-87
2022/12/19 11:19:57;;;;;;;15.75;11.32;;;;;;;;;;5076664;28;20791;-86
2022/12/19 11:22:27;;;;;;;15.63;12.05;;;;;;;;;;5076136;28;20209;-86
2022/12/19 11:24:56;;;;;;;15.85;10.60;;;;;;;;;;5066820;28;20193;-86
2022/12/19 11:27:38;;;;;;;17.35;12.98;;;;;;;;;;5071001;28;20217;-87
2022/12/19 11:30:19;;;;;;;17.88;11.93;;;;;;;;;;5071332;28;20292;-85
2022/12/19 11:32:48;;;;;;;14.82;11.07;;;;;;;;;;5078001;28;20217;-84
2022/12/19 11:35:22;;;;;;;13.13;9.20;;;;;;;;;;5074230;28;20281;-86
2022/12/19 11:37:54;;;;;;;14.10;10.73;;;;;;;;;;5070840;28;20189;-87
2022/12/19 11:40:32;;;;;;;16.58;11.85;;;;;;;;;;5071374;28;20303;-87
2022/12/19 11:43:04;;;;;;;17.65;13.48;;;;;;;;;;5081119;28;20193;-86
2022/12/19 11:45:43;;;;;;;13.73;11.35;;;;;;;;;;5078510;28;20725;-86
2022/12/19 11:48:15;;;;;;;14.40;11.77;;;;;;;;;;5081617;28;20677;-84
2022/12/19 11:50:54;;;;;;;13.75;10.75;;;;;;;;;;5081348;28;20303;-85
2022/12/19 11:53:29;;;;;;;16.77;11.13;;;;;;;;;;5072163;28;20209;-87
2022/12/19 11:56:01;;;;;;;18.08;12.63;;;;;;;;;;5068193;28;20201;-85
2022/12/19 11:58:29;;;;;;;17.30;11.70;;;;;;;;;;5068935;28;20216;-86
2022/12/19 12:01:05;;;;;;;12.85;10.65;;;;;;;;;;5069379;28;20214;-86
2022/12/19 12:04:01;;;;;;;15.32;11.43;;;;;;;;;;5071729;28;20215;-86
2022/12/19 12:06:34;;;;;;;15.82;11.10;;;;;;;;;;5068615;28;20628;-85
2022/12/19 12:09:10;;;;;;;16.00;11.25;;;;;;;;;;5073646;28;20190;-86
2022/12/19 12:11:45;;;;;;;12.40;8.95;;;;;;;;;;5076437;28;20236;-85
2022/12/19 12:14:20;;;;;;;15.60;11.43;;;;;;;;;;5070594;28;20685;-86
2022/12/19 12:17:12;;;;;;;13.18;10.77;;;;;;;;;;5076267;28;20197;-86
2022/12/19 12:19:58;;;;;;;12.02;9.02;;;;;;;;;;5079333;28;20251;-86
2022/12/19 12:22:54;;;;;;;13.85;10.00;;;;;;;;;;5074775;28;20241;-84
2022/12/19 12:25:31;;;;;;;11.32;8.63;;;;;;;;;;5078770;28;20269;-83
2022/12/19 12:28:21;;;;;;;13.75;10.00;;;;;;;;;;5084406;28;20209;-86
2022/12/19 12:30:54;;;;;;;11.32;9.35;;;;;;;;;;5084076;28;20326;-85
2022/12/19 12:33:29;;;;;;;13.65;9.00;;;;;;;;;;5087438;28;20216;-85
2022/12/19 12:36:01;;;;;;;11.43;9.45;;;;;;;;;;5080054;28;20256;-84
2022/12/19 12:38:47;;;;;;;12.68;10.02;;;;;;;;;;5080353;28;20261;-85
2022/12/19 12:42:02;;;;;;;15.88;10.63;;;;;;;;;;5075473;28;20266;-87
2022/12/19 12:44:14;;;;;;;11.57;7.95;;;;;;;;;;5075881;28;20251;-86
2022/12/19 12:46:46;;;;;;;13.68;10.70;;;;;;;;;;5085976;22;20451;-86
2022/12/19 12:49:37;;;;;;;11.77;8.85;;;;;;;;;;5052443;28;20657;-86
2022/12/19 12:52:07;;;;;;;13.65;10.38;;;;;;;;;;5045907;28;20230;-88
2022/12/19 12:54:38;;;;;;;11.63;8.68;;;;;;;;;;5016218;28;20362;-86
2022/12/19 12:57:05;;;;;;;11.43;8.32;;;;;;;;;;5028869;28;20195;-88
2022/12/19 12:59:33;;;;;;;11.77;9.07;;;;;;;;;;5029564;28;20289;-86
2022/12/19 13:02:07;;;;;;;13.60;9.85;;;;;;;;;;5034999;28;20293;-86
2022/12/19 13:04:41;;;;;;;11.18;9.13;;;;;;;;;;5045571;28;20285;-85
2022/12/19 13:07:34;;;;;;;14.45;9.77;;;;;;;;;;5033439;28;20292;-87
2022/12/19 13:10:21;;;;;;;11.38;9.52;;;;;;;;;;5025353;28;20252;-87
2022/12/19 13:13:07;;;;;;;14.70;9.65;;;;;;;;;;5042370;28;20233;-83
2022/12/19 13:15:42;;;;;;;13.93;10.30;;;;;;;;;;5029725;28;20225;-84
2022/12/19 13:18:39;;;;;;;15.27;10.25;;;;;;;;;;5025120;28;20640;-86
2022/12/19 13:21:16;;;;;;;12.02;9.93;;;;;;;;;;5026358;28;20301;-85
2022/12/19 13:23:48;;;;;;;13.13;9.77;;;;;;;;;;5024703;28;20245;-84
2022/12/19 13:26:51;;;;;;;12.85;10.38;;;;;;;;;;5026227;28;20197;-88
2022/12/19 13:29:53;;;;;;;11.95;9.23;;;;;;;;;;5023845;28;20205;-85
2022/12/19 13:33:22;;;;;;;13.35;10.15;;;;;;;;;;5027015;28;20201;-86
2022/12/19 13:35:49;;;;;;;10.20;8.90;;;;;;;;;;5025613;28;20577;-89
2022/12/19 13:38:23;;;;;;;11.65;9.00;;;;;;;;;;5031584;28;20209;-85
2022/12/19 13:41:01;;;;;;;9.88;8.05;;;;;;;;;;5029998;28;20216;-88
2022/12/19 13:43:48;;;;;;;13.30;9.95;;;;;;;;;;5024624;28;20225;-88
2022/12/19 13:46:28;;;;;;;13.20;9.90;;;;;;;;;;5036448;28;20611;-88
2022/12/19 13:48:59;;;;;;;12.43;9.77;;;;;;;;;;5031718;28;20210;-88
2022/12/19 13:51:27;;;;;;;13.00;10.20;;;;;;;;;;5033312;28;20189;-87
2022/12/19 13:53:56;;;;;;;11.60;10.05;;;;;;;;;;5029983;28;20226;-88
2022/12/19 13:56:23;;;;;;;14.65;9.93;;;;;;;;;;5037333;28;20298;-87
2022/12/19 13:58:53;;;;;;;15.07;10.30;;;;;;;;;;5024715;28;20285;-88
2022/12/19 14:01:25;;;;;;;12.60;10.05;;;;;;;;;;5036735;28;20252;-87
2022/12/19 14:03:55;;;;;;;15.05;9.93;;;;;;;;;;5021396;28;20334;-88
2022/12/19 14:06:26;;;;;;;13.98;10.30;;;;;;;;;;5032792;28;20233;-87
2022/12/19 14:08:58;;;;;;;13.13;10.48;;;;;;;;;;5036419;28;20327;-88
2022/12/19 14:11:28;;;;;;;12.55;10.35;;;;;;;;;;5028466;28;20202;-88
2022/12/19 14:16:44;;;;;;;10.88;9.38;;;;;;;;;;5024492;28;20210;-88
2022/12/19 14:19:20;;;;;;;14.85;10.23;;;;;;;;;;5031434;28;20538;-88
2022/12/19 14:21:48;;;;;;;12.15;8.98;;;;;;;;;;5034432;28;20670;-89
2022/12/19 14:24:21;;;;;;;13.07;10.38;;;;;;;;;;5032432;28;20312;-89
2022/12/19 14:26:51;;;;;;;10.20;8.30;;;;;;;;;;5033080;28;20308;-89
2022/12/19 14:29:25;;;;;;;13.55;10.32;;;;;;;;;;5032844;28;20215;-88
2022/12/19 14:31:53;;;;;;;13.15;9.52;;;;;;;;;;5032732;28;20584;-89
2022/12/19 14:34:23;;;;;;;12.13;9.65;;;;;;;;;;5031951;28;20227;-87
2022/12/19 14:36:54;;;;;;;11.70;9.23;;;;;;;;;;5033085;28;20288;-86
2022/12/19 14:39:27;;;;;;;15.45;10.07;;;;;;;;;;5032594;28;20678;-87
2022/12/19 14:44:53;;;;;;;10.88;8.43;;;;;;;;;;5032108;28;20340;-89
2022/12/19 14:47:24;;;;;;;11.15;9.45;;;;;;;;;;5032463;28;20297;-88
2022/12/19 14:49:53;;;;;;;10.52;9.38;;;;;;;;;;5032278;28;20214;-89
2022/12/19 14:52:41;;;;;;;13.65;9.50;;;;;;;;;;5029700;28;20208;-87
2022/12/19 14:55:32;;;;;;;13.35;9.18;;;;;;;;;;5017391;28;20218;-89
2022/12/19 14:58:07;;;;;;;10.35;8.40;;;;;;;;;;5025351;28;20285;-87
2022/12/19 15:00:43;;;;;;;10.60;8.13;;;;;;;;;;5034103;28;20304;-88
2022/12/19 15:03:21;;;;;;;11.55;8.48;;;;;;;;;;5030649;28;20305;-88
2022/12/19 15:05:49;;;;;;;9.75;8.00;;;;;;;;;;5020112;28;20230;-86
2022/12/19 15:08:24;;;;;;;10.95;8.90;;;;;;;;;;5028738;28;20202;-90
2022/12/19 15:13:17;;;;;;;14.35;10.00;;;;;;;;;;5039576;28;20271;-90
2022/12/19 15:13:53;;;;;;;10.18;7.60;;;;;;;;;;5036722;28;20236;-90
2022/12/19 15:16:28;;;;;;;9.52;7.82;;;;;;;;;;5036682;28;20249;-90
2022/12/19 15:18:58;;;;;;;11.77;8.45;;;;;;;;;;5036283;28;20280;-89
2022/12/19 15:21:26;;;;;;;9.25;7.55;;;;;;;;;;5035946;28;20198;-89
2022/12/19 15:24:09;;;;;;;10.27;7.72;;;;;;;;;;5037405;28;20313;-89